createdAt,value
2018-09-17T00:00:07.258Z,9.07
2018-09-17T00:01:07.195Z,9.11
2018-09-17T00:02:07.194Z,9.15
2018-09-17T00:03:07.260Z,9.13
2018-09-17T00:04:07.261Z,9.08
2018-09-17T00:05:07.190Z,9.04
2018-09-17T00:06:07.192Z,9.01
2018-09-17T00:07:07.263Z,8.98
2018-09-17T00:08:07.361Z,8.93
2018-09-17T00:09:07.263Z,8.87
2018-09-17T00:10:07.200Z,8.80
2018-09-17T00:11:07.198Z,8.78
2018-09-17T00:12:07.272Z,8.74
2018-09-17T00:13:07.201Z,8.69
2018-09-17T00:14:07.265Z,8.67
2018-09-17T00:15:07.268Z,8.68
2018-09-17T00:16:07.268Z,8.65
2018-09-17T00:17:07.268Z,8.61
2018-09-17T00:18:07.271Z,8.62
2018-09-17T00:19:07.208Z,8.60
2018-09-17T00:20:07.275Z,8.56
2018-09-17T00:21:07.208Z,8.54
2018-09-17T00:22:07.276Z,8.49
2018-09-17T00:23:07.272Z,8.47
2018-09-17T00:24:07.219Z,8.42
2018-09-17T00:25:07.214Z,8.38
2018-09-17T00:26:07.213Z,8.34
2018-09-17T00:27:07.377Z,8.33
2018-09-17T00:28:07.210Z,8.35
2018-09-17T00:29:07.310Z,8.39
2018-09-17T00:30:07.256Z,8.45
2018-09-17T00:31:07.279Z,8.45
2018-09-17T00:32:07.259Z,8.39
2018-09-17T00:33:07.280Z,8.35
2018-09-17T00:34:07.205Z,8.34
2018-09-17T00:35:07.207Z,8.34
2018-09-17T00:36:07.337Z,8.33
2018-09-17T00:37:07.280Z,8.34
2018-09-17T00:38:07.257Z,8.30
2018-09-17T00:39:07.203Z,8.27
2018-09-17T00:40:07.277Z,8.24
2018-09-17T00:41:07.199Z,8.23
2018-09-17T00:42:07.203Z,8.20
2018-09-17T00:43:07.174Z,8.19
2018-09-17T00:44:07.208Z,8.19
2018-09-17T00:45:07.285Z,8.12
2018-09-17T00:46:07.193Z,8.08
2018-09-17T00:47:07.208Z,8.02
2018-09-17T00:48:07.280Z,8.02
2018-09-17T00:49:07.310Z,8.02
2018-09-17T00:50:07.196Z,8.02
2018-09-17T00:51:07.286Z,8.05
2018-09-17T00:52:07.287Z,8.08
2018-09-17T00:53:07.212Z,8.08
2018-09-17T00:54:07.200Z,8.06
2018-09-17T00:55:07.200Z,8.05
2018-09-17T00:56:07.214Z,8.01
2018-09-17T00:57:07.292Z,7.97
2018-09-17T00:58:07.285Z,7.92
2018-09-17T00:59:07.333Z,7.92
2018-09-17T01:00:07.302Z,7.89
2018-09-17T01:01:07.274Z,7.82
2018-09-17T01:02:07.259Z,7.79
2018-09-17T01:03:07.307Z,7.78
2018-09-17T01:04:07.271Z,7.78
2018-09-17T01:05:07.263Z,7.76
2018-09-17T01:06:07.267Z,7.75
2018-09-17T01:07:07.208Z,7.70
2018-09-17T01:08:07.302Z,7.67
2018-09-17T01:09:07.222Z,7.64
2018-09-17T01:10:07.310Z,7.60
2018-09-17T01:11:07.282Z,7.58
2018-09-17T01:12:07.274Z,7.56
2018-09-17T01:13:07.333Z,7.55
2018-09-17T01:14:07.207Z,7.53
2018-09-17T01:15:07.247Z,7.52
2018-09-17T01:16:07.310Z,7.56
2018-09-17T01:17:07.354Z,7.56
2018-09-17T01:18:07.253Z,7.64
2018-09-17T01:19:07.332Z,7.68
2018-09-17T01:20:07.274Z,7.78
2018-09-17T01:21:07.389Z,7.79
2018-09-17T01:22:07.354Z,7.76
2018-09-17T01:23:07.319Z,7.75
2018-09-17T01:24:07.221Z,7.76
2018-09-17T01:25:07.237Z,7.78
2018-09-17T01:26:07.315Z,7.72
2018-09-17T01:27:07.325Z,7.68
2018-09-17T01:28:07.317Z,7.65
2018-09-17T01:29:07.256Z,7.63
2018-09-17T01:30:07.257Z,7.60
2018-09-17T01:31:07.332Z,7.53
2018-09-17T01:32:07.330Z,7.56
2018-09-17T01:33:07.298Z,7.64
2018-09-17T01:34:07.326Z,7.71
2018-09-17T01:35:07.258Z,7.74
2018-09-17T01:36:07.261Z,7.75
2018-09-17T01:37:07.262Z,7.72
2018-09-17T01:38:07.262Z,7.70
2018-09-17T01:39:07.243Z,7.67
2018-09-17T01:40:07.330Z,7.64
2018-09-17T01:41:07.264Z,7.67
2018-09-17T01:42:07.335Z,7.78
2018-09-17T01:43:07.352Z,7.89
2018-09-17T01:44:07.269Z,7.93
2018-09-17T01:45:07.365Z,7.97
2018-09-17T01:46:07.382Z,7.95
2018-09-17T01:47:07.337Z,7.95
2018-09-17T01:48:07.364Z,7.90
2018-09-17T01:49:07.251Z,7.87
2018-09-17T01:50:07.210Z,7.81
2018-09-17T01:51:07.257Z,7.72
2018-09-17T01:52:07.237Z,7.68
2018-09-17T01:53:07.332Z,7.63
2018-09-17T01:54:07.242Z,7.55
2018-09-17T01:55:07.337Z,7.52
2018-09-17T01:56:07.288Z,7.49
2018-09-17T01:57:07.329Z,7.48
2018-09-17T01:58:07.333Z,7.44
2018-09-17T01:59:07.347Z,7.44
2018-09-17T02:00:07.275Z,7.44
2018-09-17T02:01:07.277Z,7.42
2018-09-17T02:02:07.347Z,7.40
2018-09-17T02:03:07.342Z,7.37
2018-09-17T02:04:07.275Z,7.34
2018-09-17T02:05:07.350Z,7.34
2018-09-17T02:06:07.280Z,7.29
2018-09-17T02:07:07.288Z,7.27
2018-09-17T02:08:07.431Z,7.23
2018-09-17T02:09:07.341Z,7.22
2018-09-17T02:10:07.380Z,7.16
2018-09-17T02:11:07.292Z,7.09
2018-09-17T02:12:07.256Z,7.08
2018-09-17T02:13:07.324Z,7.02
2018-09-17T02:14:07.321Z,6.98
2018-09-17T02:15:07.382Z,6.93
2018-09-17T02:16:07.254Z,6.89
2018-09-17T02:17:07.351Z,6.84
2018-09-17T02:18:07.290Z,6.82
2018-09-17T02:19:07.348Z,6.87
2018-09-17T02:20:07.293Z,6.86
2018-09-17T02:21:07.293Z,6.86
2018-09-17T02:22:07.356Z,6.79
2018-09-17T02:23:07.357Z,6.75
2018-09-17T02:24:07.364Z,6.72
2018-09-17T02:25:07.290Z,6.70
2018-09-17T02:26:07.336Z,6.67
2018-09-17T02:27:07.366Z,6.66
2018-09-17T02:28:07.361Z,6.64
2018-09-17T02:29:07.297Z,6.67
2018-09-17T02:30:07.291Z,6.78
2018-09-17T02:31:07.297Z,6.90
2018-09-17T02:32:07.349Z,6.94
2018-09-17T02:33:07.260Z,7.04
2018-09-17T02:34:07.359Z,7.09
2018-09-17T02:35:07.302Z,7.11
2018-09-17T02:36:07.234Z,7.11
2018-09-17T02:37:07.351Z,7.09
2018-09-17T02:38:07.349Z,7.08
2018-09-17T02:39:07.232Z,7.04
2018-09-17T02:40:07.273Z,7.00
2018-09-17T02:41:07.321Z,6.95
2018-09-17T02:42:07.386Z,6.90
2018-09-17T02:43:07.229Z,6.89
2018-09-17T02:44:07.318Z,6.86
2018-09-17T02:45:07.248Z,6.84
2018-09-17T02:46:07.233Z,6.78
2018-09-17T02:47:07.293Z,6.75
2018-09-17T02:48:07.324Z,6.75
2018-09-17T02:49:07.404Z,6.72
2018-09-17T02:50:07.335Z,6.68
2018-09-17T02:51:07.417Z,6.64
2018-09-17T02:52:07.418Z,6.60
2018-09-17T02:53:07.303Z,6.59
2018-09-17T02:54:07.387Z,6.56
2018-09-17T02:55:07.377Z,6.51
2018-09-17T02:56:07.355Z,6.51
2018-09-17T02:57:07.282Z,6.52
2018-09-17T02:58:07.363Z,6.57
2018-09-17T02:59:07.378Z,6.56
2018-09-17T03:00:07.321Z,6.55
2018-09-17T03:01:07.378Z,6.49
2018-09-17T03:02:07.303Z,6.45
2018-09-17T03:03:07.380Z,6.44
2018-09-17T03:04:07.411Z,6.43
2018-09-17T03:05:07.381Z,6.40
2018-09-17T03:06:07.483Z,6.38
2018-09-17T03:07:07.383Z,6.38
2018-09-17T03:08:07.382Z,6.37
2018-09-17T03:09:07.357Z,6.40
2018-09-17T03:10:07.397Z,6.43
2018-09-17T03:11:07.330Z,6.40
2018-09-17T03:12:07.420Z,6.37
2018-09-17T03:13:07.435Z,6.36
2018-09-17T03:14:07.395Z,6.37
2018-09-17T03:15:07.397Z,6.36
2018-09-17T03:16:07.453Z,6.44
2018-09-17T03:17:07.422Z,6.45
2018-09-17T03:18:07.357Z,6.44
2018-09-17T03:19:07.395Z,6.44
2018-09-17T03:20:07.399Z,6.43
2018-09-17T03:21:07.421Z,6.40
2018-09-17T03:22:07.440Z,6.38
2018-09-17T03:23:07.305Z,6.43
2018-09-17T03:24:07.397Z,6.47
2018-09-17T03:25:07.306Z,6.47
2018-09-17T03:26:07.428Z,6.47
2018-09-17T03:27:07.365Z,6.43
2018-09-17T03:28:07.403Z,6.43
2018-09-17T03:29:07.409Z,6.41
2018-09-17T03:30:07.407Z,6.47
2018-09-17T03:31:07.398Z,6.55
2018-09-17T03:32:07.430Z,6.60
2018-09-17T03:33:07.411Z,6.63
2018-09-17T03:34:07.344Z,6.67
2018-09-17T03:35:07.412Z,6.67
2018-09-17T03:36:07.362Z,6.63
2018-09-17T03:37:07.415Z,6.66
2018-09-17T03:38:07.413Z,6.71
2018-09-17T03:39:07.404Z,6.82
2018-09-17T03:40:07.335Z,6.95
2018-09-17T03:41:07.402Z,7.07
2018-09-17T03:42:07.406Z,7.09
2018-09-17T03:43:07.332Z,7.11
2018-09-17T03:44:07.415Z,7.09
2018-09-17T03:45:07.409Z,7.05
2018-09-17T03:46:07.339Z,7.01
2018-09-17T03:47:07.410Z,6.94
2018-09-17T03:48:07.335Z,6.89
2018-09-17T03:49:07.435Z,6.82
2018-09-17T03:50:07.451Z,6.77
2018-09-17T03:51:07.423Z,6.68
2018-09-17T03:52:07.372Z,6.63
2018-09-17T03:53:07.399Z,6.57
2018-09-17T03:54:07.417Z,6.55
2018-09-17T03:55:07.397Z,6.45
2018-09-17T03:56:07.384Z,6.41
2018-09-17T03:57:07.460Z,6.41
2018-09-17T03:58:07.457Z,6.38
2018-09-17T03:59:07.357Z,6.33
2018-09-17T04:00:07.361Z,6.31
2018-09-17T04:01:07.432Z,6.27
2018-09-17T04:02:07.436Z,6.29
2018-09-17T04:03:07.362Z,6.29
2018-09-17T04:04:07.426Z,6.27
2018-09-17T04:05:07.432Z,6.25
2018-09-17T04:06:07.433Z,6.20
2018-09-17T04:07:07.367Z,6.22
2018-09-17T04:08:07.438Z,6.19
2018-09-17T04:09:07.457Z,6.18
2018-09-17T04:10:07.438Z,6.14
2018-09-17T04:11:07.446Z,6.09
2018-09-17T04:12:07.439Z,6.11
2018-09-17T04:13:07.441Z,6.11
2018-09-17T04:14:07.369Z,6.19
2018-09-17T04:15:07.368Z,6.19
2018-09-17T04:16:07.376Z,6.15
2018-09-17T04:17:07.323Z,6.19
2018-09-17T04:18:07.401Z,6.26
2018-09-17T04:19:07.404Z,6.33
2018-09-17T04:20:07.404Z,6.44
2018-09-17T04:21:07.417Z,6.52
2018-09-17T04:22:07.445Z,6.55
2018-09-17T04:23:07.474Z,6.55
2018-09-17T04:24:07.468Z,6.51
2018-09-17T04:25:07.417Z,6.45
2018-09-17T04:26:07.459Z,6.43
2018-09-17T04:27:07.342Z,6.36
2018-09-17T04:28:07.417Z,6.31
2018-09-17T04:29:07.479Z,6.27
2018-09-17T04:30:07.364Z,6.22
2018-09-17T04:31:07.389Z,6.19
2018-09-17T04:32:07.454Z,6.18
2018-09-17T04:33:07.528Z,6.16
2018-09-17T04:34:07.452Z,6.12
2018-09-17T04:35:07.426Z,6.11
2018-09-17T04:36:07.435Z,6.04
2018-09-17T04:37:07.368Z,6.02
2018-09-17T04:38:07.415Z,5.99
2018-09-17T04:39:07.388Z,5.97
2018-09-17T04:40:07.379Z,5.97
2018-09-17T04:41:07.448Z,5.96
2018-09-17T04:42:07.541Z,5.96
2018-09-17T04:43:07.451Z,5.95
2018-09-17T04:44:07.395Z,5.93
2018-09-17T04:45:07.379Z,5.92
2018-09-17T04:46:07.450Z,5.93
2018-09-17T04:47:07.443Z,5.93
2018-09-17T04:48:07.385Z,5.93
2018-09-17T04:49:07.433Z,5.93
2018-09-17T04:50:07.501Z,5.92
2018-09-17T04:51:07.460Z,5.89
2018-09-17T04:52:07.505Z,5.89
2018-09-17T04:53:07.384Z,5.92
2018-09-17T04:54:07.434Z,5.96
2018-09-17T04:55:07.411Z,6.02
2018-09-17T04:56:07.423Z,6.02
2018-09-17T04:57:07.405Z,6.00
2018-09-17T04:58:07.492Z,5.93
2018-09-17T04:59:07.407Z,5.91
2018-09-17T05:00:07.462Z,5.88
2018-09-17T05:01:07.374Z,5.85
2018-09-17T05:02:07.459Z,5.81
2018-09-17T05:03:07.399Z,5.77
2018-09-17T05:04:07.401Z,5.75
2018-09-17T05:05:07.376Z,5.77
2018-09-17T05:06:07.348Z,5.81
2018-09-17T05:07:07.429Z,5.84
2018-09-17T05:08:07.392Z,5.86
2018-09-17T05:09:07.495Z,5.86
2018-09-17T05:10:07.378Z,5.88
2018-09-17T05:11:07.414Z,5.88
2018-09-17T05:12:07.381Z,5.93
2018-09-17T05:13:07.561Z,5.96
2018-09-17T05:14:07.455Z,5.99
2018-09-17T05:15:07.436Z,5.97
2018-09-17T05:16:07.540Z,6.04
2018-09-17T05:17:07.477Z,6.09
2018-09-17T05:18:07.503Z,6.15
2018-09-17T05:19:07.483Z,6.25
2018-09-17T05:20:07.414Z,6.27
2018-09-17T05:21:07.481Z,6.31
2018-09-17T05:22:07.420Z,6.36
2018-09-17T05:23:07.418Z,6.36
2018-09-17T05:24:07.438Z,6.37
2018-09-17T05:25:07.486Z,6.36
2018-09-17T05:26:07.418Z,6.34
2018-09-17T05:27:07.386Z,6.31
2018-09-17T05:28:07.458Z,6.29
2018-09-17T05:29:07.422Z,6.29
2018-09-17T05:30:07.424Z,6.27
2018-09-17T05:31:07.487Z,6.27
2018-09-17T05:32:07.426Z,6.29
2018-09-17T05:33:07.492Z,6.29
2018-09-17T05:34:07.424Z,6.29
2018-09-17T05:35:07.499Z,6.31
2018-09-17T05:37:07.502Z,6.38
2018-09-17T05:38:07.387Z,6.41
2018-09-17T05:39:07.501Z,6.44
2018-09-17T05:40:07.490Z,6.47
2018-09-17T05:41:07.495Z,6.51
2018-09-17T05:42:07.493Z,6.56
2018-09-17T05:43:07.516Z,6.61
2018-09-17T05:44:07.570Z,6.70
2018-09-17T05:45:07.497Z,6.72
2018-09-17T05:46:07.518Z,6.77
2018-09-17T05:47:07.435Z,6.79
2018-09-17T05:48:07.468Z,6.87
2018-09-17T05:49:07.404Z,6.93
2018-09-17T05:50:07.500Z,7.00
2018-09-17T05:51:07.460Z,7.05
2018-09-17T05:52:07.439Z,7.08
2018-09-17T05:53:07.530Z,7.07
2018-09-17T05:54:07.538Z,7.11
2018-09-17T05:55:07.524Z,7.18
2018-09-17T05:56:07.426Z,7.33
2018-09-17T05:57:07.486Z,7.41
2018-09-17T05:58:07.414Z,7.53
2018-09-17T05:59:07.451Z,7.60
2018-09-17T06:00:07.480Z,7.65
2018-09-17T06:01:07.445Z,7.68
2018-09-17T06:02:07.511Z,7.67
2018-09-17T06:03:07.513Z,7.68
2018-09-17T06:04:07.510Z,7.70
2018-09-17T06:05:07.454Z,7.71
2018-09-17T06:06:07.523Z,7.74
2018-09-17T06:07:07.621Z,7.78
2018-09-17T06:08:07.446Z,7.81
2018-09-17T06:09:07.513Z,7.83
2018-09-17T06:10:07.446Z,7.85
2018-09-17T06:11:07.546Z,7.89
2018-09-17T06:12:07.519Z,7.92
2018-09-17T06:13:07.521Z,7.97
2018-09-17T06:14:07.450Z,8.01
2018-09-17T06:15:07.522Z,8.02
2018-09-17T06:16:07.520Z,8.05
2018-09-17T06:17:07.521Z,8.08
2018-09-17T06:18:07.452Z,8.08
2018-09-17T06:19:07.454Z,8.11
2018-09-17T06:20:07.527Z,8.12
2018-09-17T06:21:07.409Z,8.13
2018-09-17T06:22:07.415Z,8.17
2018-09-17T06:23:07.480Z,8.22
2018-09-17T06:24:07.529Z,8.24
2018-09-17T06:25:07.528Z,8.28
2018-09-17T06:26:07.530Z,8.35
2018-09-17T06:27:07.580Z,8.39
2018-09-17T06:28:07.462Z,8.47
2018-09-17T06:29:07.662Z,8.54
2018-09-17T06:30:07.497Z,8.62
2018-09-17T06:31:07.565Z,8.68
2018-09-17T06:32:07.503Z,8.74
2018-09-17T06:33:07.473Z,8.85
2018-09-17T06:34:07.552Z,8.96
2018-09-17T06:35:07.560Z,9.07
2018-09-17T06:36:07.579Z,9.20
2018-09-17T06:37:07.479Z,9.32
2018-09-17T06:38:07.536Z,9.43
2018-09-17T06:39:07.513Z,9.53
2018-09-17T06:40:07.538Z,9.58
2018-09-17T06:41:07.473Z,9.60
2018-09-17T06:42:07.470Z,9.61
2018-09-17T06:43:07.476Z,9.68
2018-09-17T06:44:07.543Z,9.76
2018-09-17T06:45:07.475Z,9.87
2018-09-17T06:46:07.476Z,10.02
2018-09-17T06:47:07.479Z,10.16
2018-09-17T06:48:07.547Z,10.31
2018-09-17T06:49:07.480Z,10.49
2018-09-17T06:50:07.469Z,10.68
2018-09-17T06:51:07.499Z,10.84
2018-09-17T06:52:07.519Z,11.00
2018-09-17T06:53:07.504Z,11.05
2018-09-17T06:54:07.579Z,11.14
2018-09-17T06:55:07.529Z,11.17
2018-09-17T06:56:07.506Z,11.28
2018-09-17T06:57:07.524Z,11.43
2018-09-17T06:58:07.452Z,11.46
2018-09-17T06:59:07.493Z,11.53
2018-09-17T07:00:07.525Z,11.69
2018-09-17T07:01:07.580Z,11.84
2018-09-17T07:02:07.533Z,11.99
2018-09-17T07:03:07.465Z,12.16
2018-09-17T07:04:07.591Z,12.25
2018-09-17T07:05:07.588Z,12.32
2018-09-17T07:06:07.602Z,12.42
2018-09-17T07:07:07.578Z,12.39
2018-09-17T07:08:07.559Z,12.48
2018-09-17T07:09:07.469Z,12.51
2018-09-17T07:10:07.492Z,12.55
2018-09-17T07:11:07.491Z,12.61
2018-09-17T07:12:07.495Z,12.64
2018-09-17T07:13:07.593Z,12.69
2018-09-17T07:14:07.567Z,12.79
2018-09-17T07:15:07.645Z,12.83
2018-09-17T07:16:07.565Z,12.84
2018-09-17T07:17:07.528Z,12.92
2018-09-17T07:18:07.616Z,13.05
2018-09-17T07:19:07.565Z,13.13
2018-09-17T07:20:07.501Z,13.20
2018-09-17T07:21:07.565Z,13.21
2018-09-17T07:22:07.500Z,13.28
2018-09-17T07:23:07.504Z,13.27
2018-09-17T07:24:07.506Z,13.28
2018-09-17T07:25:07.594Z,13.32
2018-09-17T07:26:07.671Z,13.40
2018-09-17T07:27:07.509Z,13.47
2018-09-17T07:28:07.569Z,13.59
2018-09-17T07:29:07.505Z,13.72
2018-09-17T07:30:07.511Z,13.81
2018-09-17T07:31:07.573Z,13.92
2018-09-17T07:32:07.538Z,13.93
2018-09-17T07:33:07.513Z,14.02
2018-09-17T07:34:07.579Z,14.14
2018-09-17T07:35:07.580Z,14.20
2018-09-17T07:36:07.583Z,14.20
2018-09-17T07:37:07.508Z,14.28
2018-09-17T07:38:07.584Z,14.42
2018-09-17T07:39:07.540Z,14.60
2018-09-17T07:40:07.548Z,14.72
2018-09-17T07:41:07.498Z,14.65
2018-09-17T07:42:07.511Z,14.64
2018-09-17T07:43:07.618Z,14.69
2018-09-17T07:44:07.559Z,14.66
2018-09-17T07:45:07.583Z,14.69
2018-09-17T07:46:07.523Z,14.71
2018-09-17T07:47:07.561Z,14.82
2018-09-17T07:48:07.582Z,14.89
2018-09-17T07:49:07.617Z,14.94
2018-09-17T07:50:07.470Z,14.91
2018-09-17T07:51:07.588Z,14.91
2018-09-17T07:52:07.584Z,14.96
2018-09-17T07:53:07.636Z,14.96
2018-09-17T07:54:07.588Z,14.96
2018-09-17T07:55:07.596Z,14.94
2018-09-17T07:56:07.533Z,14.87
2018-09-17T07:57:07.592Z,14.92
2018-09-17T07:58:07.528Z,14.96
2018-09-17T07:59:07.596Z,15.11
2018-09-17T08:00:07.512Z,15.28
2018-09-17T08:01:07.561Z,15.35
2018-09-17T08:02:07.550Z,15.54
2018-09-17T08:03:07.599Z,15.72
2018-09-17T08:04:07.560Z,15.84
2018-09-17T08:05:07.568Z,15.91
2018-09-17T08:06:07.596Z,16.10
2018-09-17T08:07:07.672Z,16.27
2018-09-17T08:08:07.599Z,16.44
2018-09-17T08:09:07.571Z,16.55
2018-09-17T08:10:07.620Z,16.76
2018-09-17T08:11:07.536Z,16.74
2018-09-17T08:12:07.535Z,16.63
2018-09-17T08:13:07.600Z,16.57
2018-09-17T08:14:07.602Z,16.73
2018-09-17T08:15:07.603Z,16.77
2018-09-17T08:16:07.538Z,16.72
2018-09-17T08:17:07.692Z,16.85
2018-09-17T08:18:07.603Z,17.02
2018-09-17T08:19:07.540Z,17.03
2018-09-17T08:20:07.682Z,17.03
2018-09-17T08:21:07.642Z,17.02
2018-09-17T08:22:07.529Z,17.06
2018-09-17T08:23:07.634Z,16.91
2018-09-17T08:24:07.582Z,17.01
2018-09-17T08:25:07.532Z,17.14
2018-09-17T08:26:07.594Z,17.21
2018-09-17T08:27:07.633Z,17.22
2018-09-17T08:28:07.582Z,17.36
2018-09-17T08:29:07.576Z,17.37
2018-09-17T08:30:07.625Z,17.33
2018-09-17T08:31:07.615Z,17.47
2018-09-17T08:32:07.516Z,17.66
2018-09-17T08:33:07.553Z,17.94
2018-09-17T08:34:07.551Z,18.20
2018-09-17T08:35:07.620Z,18.46
2018-09-17T08:36:07.625Z,18.58
2018-09-17T08:37:07.555Z,18.61
2018-09-17T08:38:07.596Z,18.41
2018-09-17T08:39:07.561Z,18.32
2018-09-17T08:40:07.625Z,18.29
2018-09-17T08:41:07.559Z,18.40
2018-09-17T08:42:07.624Z,18.32
2018-09-17T08:43:07.560Z,18.44
2018-09-17T08:44:07.557Z,18.59
2018-09-17T08:45:07.636Z,18.62
2018-09-17T08:46:07.563Z,18.72
2018-09-17T08:47:07.568Z,18.83
2018-09-17T08:48:07.623Z,19.06
2018-09-17T08:49:07.631Z,19.27
2018-09-17T08:50:07.591Z,19.38
2018-09-17T08:51:07.566Z,19.61
2018-09-17T08:52:07.589Z,19.74
2018-09-17T08:53:07.628Z,19.94
2018-09-17T08:54:07.652Z,20.06
2018-09-17T08:55:07.661Z,20.21
2018-09-17T08:56:07.664Z,20.17
2018-09-17T08:57:07.571Z,20.20
2018-09-17T08:58:07.674Z,20.25
2018-09-17T08:59:07.670Z,20.45
2018-09-17T09:00:07.596Z,20.65
2018-09-17T09:01:07.615Z,20.90
2018-09-17T09:02:07.639Z,21.14
2018-09-17T09:03:07.614Z,21.35
2018-09-17T09:04:07.678Z,21.54
2018-09-17T09:05:07.736Z,21.65
2018-09-17T09:06:07.660Z,21.72
2018-09-17T09:07:07.610Z,21.72
2018-09-17T09:08:07.664Z,21.67
2018-09-17T09:09:07.668Z,21.62
2018-09-17T09:10:07.677Z,21.56
2018-09-17T09:11:07.653Z,21.54
2018-09-17T09:12:07.647Z,21.61
2018-09-17T09:13:07.665Z,21.56
2018-09-17T09:14:07.646Z,21.53
2018-09-17T09:15:07.580Z,21.61
2018-09-17T09:16:07.649Z,21.56
2018-09-17T09:17:07.581Z,21.57
2018-09-17T09:18:07.650Z,21.67
2018-09-17T09:19:07.650Z,21.86
2018-09-17T09:20:07.634Z,22.12
2018-09-17T09:21:07.634Z,22.32
2018-09-17T09:22:07.544Z,22.60
2018-09-17T09:23:07.511Z,22.59
2018-09-17T09:24:07.584Z,22.53
2018-09-17T09:25:07.580Z,22.61
2018-09-17T09:26:07.596Z,22.75
2018-09-17T09:27:07.579Z,22.90
2018-09-17T09:28:07.529Z,23.09
2018-09-17T09:29:07.639Z,23.06
2018-09-17T09:30:07.658Z,22.91
2018-09-17T09:31:07.586Z,22.82
2018-09-17T09:32:07.659Z,22.68
2018-09-17T09:33:07.658Z,22.70
2018-09-17T09:34:07.666Z,22.68
2018-09-17T09:35:07.663Z,22.72
2018-09-17T09:36:07.661Z,22.79
2018-09-17T09:37:07.553Z,22.83
2018-09-17T09:38:07.708Z,22.91
2018-09-17T09:39:07.596Z,22.93
2018-09-17T09:40:07.682Z,23.06
2018-09-17T09:41:07.648Z,23.08
2018-09-17T09:42:07.553Z,23.23
2018-09-17T09:43:07.656Z,23.45
2018-09-17T09:44:07.690Z,23.58
2018-09-17T09:45:07.537Z,23.57
2018-09-17T09:46:07.652Z,23.58
2018-09-17T09:47:07.620Z,23.61
2018-09-17T09:48:07.625Z,23.69
2018-09-17T09:49:07.662Z,23.93
2018-09-17T09:50:07.605Z,24.14
2018-09-17T09:51:07.569Z,24.26
2018-09-17T09:52:07.603Z,24.38
2018-09-17T09:53:07.688Z,24.47
2018-09-17T09:54:07.679Z,24.57
2018-09-17T09:55:07.607Z,24.61
2018-09-17T09:56:07.616Z,24.67
2018-09-17T09:57:07.610Z,24.67
2018-09-17T09:58:07.681Z,24.71
2018-09-17T09:59:07.681Z,24.83
2018-09-17T10:00:07.637Z,25.04
2018-09-17T10:01:07.627Z,25.23
2018-09-17T10:02:07.636Z,25.31
2018-09-17T10:03:07.668Z,25.49
2018-09-17T10:04:07.584Z,25.49
2018-09-17T10:05:07.645Z,25.67
2018-09-17T10:06:07.670Z,25.86
2018-09-17T10:07:07.567Z,25.96
2018-09-17T10:08:07.591Z,26.15
2018-09-17T10:09:07.589Z,26.24
2018-09-17T10:10:07.670Z,26.37
2018-09-17T10:11:07.642Z,26.36
2018-09-17T10:12:07.674Z,26.07
2018-09-17T10:13:07.671Z,25.80
2018-09-17T10:14:07.590Z,25.42
2018-09-17T10:15:07.550Z,25.09
2018-09-17T10:16:07.671Z,25.15
2018-09-17T10:17:07.560Z,25.23
2018-09-17T10:18:07.585Z,25.33
2018-09-17T10:19:07.622Z,25.45
2018-09-17T10:20:07.631Z,25.55
2018-09-17T10:21:07.632Z,25.64
2018-09-17T10:22:07.660Z,25.85
2018-09-17T10:23:07.716Z,26.03
2018-09-17T10:24:07.593Z,26.02
2018-09-17T10:25:07.614Z,26.03
2018-09-17T10:26:07.619Z,25.97
2018-09-17T10:27:07.733Z,26.11
2018-09-17T10:28:07.649Z,26.06
2018-09-17T10:29:07.657Z,26.10
2018-09-17T10:30:07.639Z,26.25
2018-09-17T10:31:07.607Z,26.17
2018-09-17T10:32:07.643Z,26.13
2018-09-17T10:33:07.725Z,26.14
2018-09-17T10:34:07.723Z,26.03
2018-09-17T10:35:07.654Z,26.22
2018-09-17T10:36:07.731Z,26.48
2018-09-17T10:37:07.662Z,26.49
2018-09-17T10:38:07.664Z,26.58
2018-09-17T10:39:07.672Z,26.70
2018-09-17T10:40:07.709Z,26.78
2018-09-17T10:41:07.739Z,26.90
2018-09-17T10:42:07.641Z,26.93
2018-09-17T10:43:07.640Z,26.93
2018-09-17T10:44:07.715Z,27.00
2018-09-17T10:45:07.645Z,26.95
2018-09-17T10:46:07.712Z,27.04
2018-09-17T10:47:07.674Z,27.08
2018-09-17T10:48:07.714Z,27.26
2018-09-17T10:49:07.717Z,27.37
2018-09-17T10:50:07.647Z,27.57
2018-09-17T10:51:07.678Z,27.58
2018-09-17T10:52:07.654Z,27.44
2018-09-17T10:53:07.720Z,27.55
2018-09-17T10:54:07.714Z,27.48
2018-09-17T10:55:07.718Z,27.37
2018-09-17T10:56:07.650Z,27.34
2018-09-17T10:57:07.719Z,27.54
2018-09-17T10:58:07.650Z,27.78
2018-09-17T10:59:07.722Z,27.96
2018-09-17T11:00:07.589Z,28.20
2018-09-17T11:01:07.709Z,28.35
2018-09-17T11:02:07.627Z,28.50
2018-09-17T11:03:07.719Z,28.36
2018-09-17T11:04:07.614Z,28.54
2018-09-17T11:05:07.712Z,28.69
2018-09-17T11:06:07.645Z,28.75
2018-09-17T11:07:07.647Z,28.95
2018-09-17T11:08:07.635Z,29.04
2018-09-17T11:09:07.664Z,29.32
2018-09-17T11:10:07.684Z,29.23
2018-09-17T11:11:07.747Z,29.04
2018-09-17T11:12:07.687Z,29.09
2018-09-17T11:13:07.698Z,29.20
2018-09-17T11:14:07.685Z,29.09
2018-09-17T11:15:07.712Z,29.13
2018-09-17T11:16:07.761Z,29.16
2018-09-17T11:17:07.706Z,28.82
2018-09-17T11:18:07.775Z,28.06
2018-09-17T11:19:07.776Z,27.63
2018-09-17T11:20:07.762Z,27.46
2018-09-17T11:21:07.767Z,27.33
2018-09-17T11:22:07.731Z,27.26
2018-09-17T11:23:07.768Z,27.32
2018-09-17T11:24:07.649Z,27.36
2018-09-17T11:25:07.789Z,27.30
2018-09-17T11:26:07.761Z,27.23
2018-09-17T11:27:07.761Z,27.30
2018-09-17T11:28:07.775Z,27.41
2018-09-17T11:29:07.782Z,27.66
2018-09-17T11:30:07.774Z,28.02
2018-09-17T11:31:07.734Z,28.29
2018-09-17T11:32:07.744Z,28.37
2018-09-17T11:33:07.636Z,28.33
2018-09-17T11:34:07.737Z,28.44
2018-09-17T11:35:07.730Z,28.51
2018-09-17T11:36:07.655Z,28.66
2018-09-17T11:37:07.739Z,28.87
2018-09-17T11:38:07.651Z,28.99
2018-09-17T11:39:07.653Z,28.86
2018-09-17T11:40:07.685Z,28.94
2018-09-17T11:41:07.742Z,28.94
2018-09-17T11:42:07.706Z,28.54
2018-09-17T11:43:07.677Z,28.28
2018-09-17T11:44:07.726Z,27.95
2018-09-17T11:45:07.650Z,27.85
2018-09-17T11:46:07.708Z,27.92
2018-09-17T11:47:07.647Z,27.58
2018-09-17T11:48:07.657Z,27.57
2018-09-17T11:49:07.675Z,27.63
2018-09-17T11:50:07.718Z,27.62
2018-09-17T11:51:07.656Z,27.75
2018-09-17T11:52:07.654Z,27.89
2018-09-17T11:53:07.753Z,28.06
2018-09-17T11:54:07.800Z,28.07
2018-09-17T11:55:07.704Z,28.15
2018-09-17T11:56:07.612Z,28.02
2018-09-17T11:57:07.660Z,28.04
2018-09-17T11:58:07.780Z,27.89
2018-09-17T11:59:07.623Z,27.86
2018-09-17T12:00:07.718Z,27.85
2018-09-17T12:01:07.697Z,28.02
2018-09-17T12:02:07.691Z,28.13
2018-09-17T12:03:07.753Z,28.33
2018-09-17T12:04:07.635Z,28.49
2018-09-17T12:05:07.639Z,28.64
2018-09-17T12:06:07.635Z,28.79
2018-09-17T12:07:07.724Z,28.76
2018-09-17T12:08:07.692Z,28.69
2018-09-17T12:09:07.725Z,28.50
2018-09-17T12:10:07.632Z,28.33
2018-09-17T12:11:07.739Z,28.17
2018-09-17T12:12:07.708Z,28.06
2018-09-17T12:13:07.804Z,28.15
2018-09-17T12:14:07.749Z,27.86
2018-09-17T12:15:07.751Z,27.84
2018-09-17T12:16:07.751Z,27.77
2018-09-17T12:17:07.790Z,27.88
2018-09-17T12:18:07.696Z,27.96
2018-09-17T12:19:07.797Z,28.03
2018-09-17T12:20:07.737Z,28.17
2018-09-17T12:21:07.811Z,28.31
2018-09-17T12:22:07.746Z,28.37
2018-09-17T12:23:07.813Z,28.47
2018-09-17T12:24:07.680Z,28.42
2018-09-17T12:25:07.752Z,28.39
2018-09-17T12:26:07.763Z,28.21
2018-09-17T12:27:07.688Z,27.92
2018-09-17T12:28:07.745Z,28.00
2018-09-17T12:29:07.751Z,28.13
2018-09-17T12:30:07.744Z,28.29
2018-09-17T12:31:07.719Z,28.40
2018-09-17T12:32:07.788Z,28.50
2018-09-17T12:33:07.787Z,28.43
2018-09-17T12:34:07.722Z,28.31
2018-09-17T12:35:07.719Z,28.36
2018-09-17T12:36:07.788Z,28.29
2018-09-17T12:37:07.732Z,28.25
2018-09-17T12:38:07.755Z,27.95
2018-09-17T12:39:07.791Z,27.89
2018-09-17T12:40:07.728Z,27.93
2018-09-17T12:41:07.791Z,28.03
2018-09-17T12:42:07.728Z,28.04
2018-09-17T12:43:07.730Z,28.13
2018-09-17T12:44:07.728Z,28.15
2018-09-17T12:45:07.747Z,28.10
2018-09-17T12:46:07.796Z,28.07
2018-09-17T12:47:07.730Z,27.98
2018-09-17T12:48:07.731Z,27.82
2018-09-17T12:49:07.734Z,27.62
2018-09-17T12:50:07.694Z,27.62
2018-09-17T12:51:07.784Z,27.74
2018-09-17T12:52:07.784Z,27.82
2018-09-17T12:53:07.801Z,27.86
2018-09-17T12:54:07.765Z,27.82
2018-09-17T12:55:07.766Z,27.81
2018-09-17T12:56:07.828Z,27.80
2018-09-17T12:57:07.838Z,27.68
2018-09-17T12:58:07.772Z,27.85
2018-09-17T12:59:07.768Z,27.92
2018-09-17T13:00:07.832Z,27.98
2018-09-17T13:01:07.752Z,28.18
2018-09-17T13:02:07.767Z,28.47
2018-09-17T13:03:07.676Z,28.62
2018-09-17T13:04:07.672Z,28.80
2018-09-17T13:05:07.678Z,28.95
2018-09-17T13:06:07.685Z,28.98